createdAt,value
2018-09-21T00:00:13.438Z,89.06
2018-09-21T00:01:23.511Z,89.15
2018-09-21T00:02:33.319Z,89.15
2018-09-21T00:03:43.145Z,89.54
2018-09-21T00:04:53.197Z,89.54
2018-09-21T00:06:03.710Z,89.35
2018-09-21T00:07:13.791Z,89.35
2018-09-21T00:08:23.610Z,89.44
2018-09-21T00:09:33.679Z,89.35
2018-09-21T00:10:43.750Z,89.44
2018-09-21T00:11:53.812Z,89.54
2018-09-21T00:13:03.627Z,89.44
2018-09-21T00:14:13.710Z,89.54
2018-09-21T00:15:23.528Z,89.35
2018-09-21T00:16:33.334Z,89.35
2018-09-21T00:17:42.885Z,89.54
2018-09-21T00:18:52.697Z,89.3
2018-09-21T00:20:03.280Z,89.35
2018-09-21T00:21:13.100Z,89.35
2018-09-21T00:22:23.166Z,89.54
2018-09-21T00:23:34.051Z,89.3
2018-09-21T00:24:43.601Z,89.73
2018-09-21T00:25:53.427Z,89.3
2018-09-21T00:27:05.695Z,89.59
2018-09-21T00:28:15.810Z,89.15
2018-09-21T00:29:25.895Z,89.5
2018-09-21T00:30:35.964Z,89.11
2018-09-21T00:31:45.774Z,89.11
2018-09-21T00:32:55.870Z,89.5
2018-09-21T00:34:05.685Z,89.11
2018-09-21T00:35:15.757Z,89.11
2018-09-21T00:36:25.863Z,89.21
2018-09-21T00:37:35.707Z,89.11
2018-09-21T00:38:45.784Z,89.11
2018-09-21T00:39:55.839Z,89.11
2018-09-21T00:41:06.496Z,89.21
2018-09-21T00:42:16.328Z,89.3
2018-09-21T00:43:26.391Z,88.92
2018-09-21T00:44:36.471Z,88.92
2018-09-21T00:45:46.284Z,89.11
2018-09-21T00:46:56.365Z,89.5
2018-09-21T00:48:08.487Z,89.21
2018-09-21T00:49:18.082Z,89.01
2018-09-21T00:50:27.894Z,89.01
2018-09-21T00:51:37.448Z,88.92
2018-09-21T00:52:47.522Z,88.92
2018-09-21T00:53:57.607Z,88.92
2018-09-21T00:55:07.411Z,89.11
2018-09-21T00:56:17.492Z,89.5
2018-09-21T00:57:27.290Z,89.5
2018-09-21T00:58:37.485Z,88.92
2018-09-21T00:59:47.560Z,89.3
2018-09-21T01:00:57.640Z,89.11
2018-09-21T01:02:07.711Z,89.5
2018-09-21T01:03:17.523Z,88.82
2018-09-21T01:04:27.348Z,88.73
2018-09-21T01:05:37.419Z,88.92
2018-09-21T01:06:47.477Z,88.92
2018-09-21T01:07:57.597Z,89.21
2018-09-21T01:09:07.713Z,88.92
2018-09-21T01:10:17.566Z,88.92
2018-09-21T01:11:27.658Z,88.92
2018-09-21T01:12:37.753Z,88.82
2018-09-21T01:13:47.830Z,89.21
2018-09-21T01:14:57.916Z,89.21
2018-09-21T01:16:09.043Z,88.82
2018-09-21T01:17:19.111Z,89.5
2018-09-21T01:18:28.908Z,88.92
2018-09-21T01:19:38.717Z,89.11
2018-09-21T01:20:48.533Z,88.82
2018-09-21T01:21:58.359Z,88.82
2018-09-21T01:23:08.537Z,89.5
2018-09-21T01:24:18.361Z,89.3
2018-09-21T01:25:28.436Z,89.5
2018-09-21T01:26:38.504Z,89.3
2018-09-21T01:27:48.386Z,89.11
2018-09-21T01:28:58.204Z,89.11
2018-09-21T01:30:08.042Z,89.11
2018-09-21T01:31:18.123Z,89.3
2018-09-21T01:32:27.954Z,89.26
2018-09-21T01:33:38.090Z,89.3
2018-09-21T01:34:48.161Z,89.26
2018-09-21T01:35:58.249Z,89.36
2018-09-21T01:37:08.324Z,89.5
2018-09-21T01:38:18.403Z,89.45
2018-09-21T01:39:28.484Z,89.5
2018-09-21T01:40:38.290Z,89.3
2018-09-21T01:41:48.369Z,89.3
2018-09-21T01:42:58.231Z,88.97
2018-09-21T01:44:08.300Z,89.59
2018-09-21T01:45:18.389Z,89.11
2018-09-21T01:46:28.451Z,89.45
2018-09-21T01:47:38.267Z,89.16
2018-09-21T01:48:48.333Z,88.97
2018-09-21T01:49:58.437Z,89.07
2018-09-21T01:51:08.528Z,89.45
2018-09-21T01:52:18.350Z,89.07
2018-09-21T01:53:28.412Z,89.26
2018-09-21T01:54:38.497Z,89.54
2018-09-21T01:55:48.365Z,89.26
2018-09-21T01:56:58.491Z,89.36
2018-09-21T01:58:08.565Z,89.45
2018-09-21T01:59:18.374Z,89.26
2018-09-21T02:00:28.442Z,89.07
2018-09-21T02:01:38.248Z,89.26
2018-09-21T02:02:48.315Z,89.45
2018-09-21T02:03:58.112Z,89.07
2018-09-21T02:05:08.216Z,89.45
2018-09-21T02:06:18.290Z,89.54
2018-09-21T02:07:28.371Z,89.26
2018-09-21T02:08:38.451Z,89.45
2018-09-21T02:09:48.516Z,89.07
2018-09-21T02:10:58.613Z,89.16
2018-09-21T02:12:08.789Z,88.87
2018-09-21T02:13:18.870Z,89.36
2018-09-21T02:14:28.997Z,88.87
2018-09-21T02:15:38.812Z,89.26
2018-09-21T02:16:48.914Z,89.26
2018-09-21T02:17:58.978Z,89.36
2018-09-21T02:19:09.910Z,89.36
2018-09-21T02:20:20.056Z,88.87
2018-09-21T02:21:29.890Z,89.07
2018-09-21T02:22:39.973Z,89.26
2018-09-21T02:23:50.030Z,89.07
2018-09-21T02:24:59.852Z,89.07
2018-09-21T02:26:09.957Z,89.45
2018-09-21T02:27:20.020Z,88.87
2018-09-21T02:28:30.106Z,89.45
2018-09-21T02:29:39.915Z,89.36
2018-09-21T02:30:49.728Z,89.26
2018-09-21T02:31:59.792Z,88.83
2018-09-21T02:33:09.599Z,88.93
2018-09-21T02:34:19.437Z,89.31
2018-09-21T02:35:29.497Z,89.07
2018-09-21T02:36:39.359Z,89.54
2018-09-21T02:37:49.457Z,89.4
2018-09-21T02:38:59.269Z,89.5
2018-09-21T02:40:09.351Z,89.22
2018-09-21T02:41:19.635Z,89.12
2018-09-21T02:42:30.012Z,88.93
2018-09-21T02:43:40.231Z,89.22
2018-09-21T02:44:50.046Z,88.93
2018-09-21T02:46:00.136Z,89.12
2018-09-21T02:47:10.223Z,89.4
2018-09-21T02:48:20.043Z,89.31
2018-09-21T02:49:30.114Z,89.31
2018-09-21T02:50:39.945Z,89.31
2018-09-21T02:51:50.027Z,89.31
2018-09-21T02:53:00.105Z,89.4
2018-09-21T02:54:10.191Z,89.31
2018-09-21T02:55:20.954Z,89.31
2018-09-21T02:56:31.025Z,89.31
2018-09-21T02:57:41.089Z,89.31
2018-09-21T02:58:50.940Z,89.31
2018-09-21T03:00:01.009Z,89.22
2018-09-21T03:01:11.091Z,89.31
2018-09-21T03:02:21.215Z,89.31
2018-09-21T03:35:27.409Z,83.59
2018-09-21T03:36:37.489Z,83.68
2018-09-21T03:37:47.310Z,84.92
2018-09-21T03:38:57.435Z,85.5
2018-09-21T03:40:08.246Z,85.98
2018-09-21T03:41:18.372Z,87.32
2018-09-21T03:42:28.467Z,86.94
2018-09-21T03:43:38.280Z,87.9
2018-09-21T03:44:48.414Z,87.9
2018-09-21T03:45:58.237Z,88.51
2018-09-21T03:47:09.734Z,88.32
2018-09-21T03:48:19.810Z,88.51
2018-09-21T03:49:29.632Z,88.7
2018-09-21T03:50:39.711Z,88.8
2018-09-21T03:51:49.815Z,89.42
2018-09-21T03:52:59.675Z,89.04
2018-09-21T03:54:09.765Z,88.84
2018-09-21T03:55:19.905Z,89.23
2018-09-21T03:56:29.990Z,89.27
2018-09-21T03:57:40.067Z,89.08
2018-09-21T03:58:50.132Z,89.27
2018-09-21T03:59:59.938Z,89.08
2018-09-21T04:01:10.300Z,89.27
2018-09-21T04:02:20.301Z,89.08
2018-09-21T04:03:30.387Z,89.27
2018-09-21T04:04:40.514Z,89.08
2018-09-21T04:05:50.596Z,89.12
2018-09-21T04:07:00.685Z,89.32
2018-09-21T04:08:10.766Z,88.93
2018-09-21T04:09:20.831Z,88.93
2018-09-21T04:10:30.962Z,88.84
2018-09-21T04:11:41.059Z,88.93
2018-09-21T04:12:51.142Z,89.12
2018-09-21T04:14:01.212Z,89.12
2018-09-21T04:15:11.283Z,89.12
2018-09-21T04:16:21.112Z,89.12
2018-09-21T04:17:31.205Z,88.74
2018-09-21T04:18:41.293Z,88.84
2018-09-21T04:19:51.370Z,88.84
2018-09-21T04:21:01.463Z,88.93
2018-09-21T04:22:11.011Z,88.93
2018-09-21T04:23:20.845Z,88.93
2018-09-21T04:24:30.937Z,89.03
2018-09-21T04:25:40.753Z,89.12
2018-09-21T04:26:50.562Z,89.17
2018-09-21T04:28:00.642Z,89.12
2018-09-21T04:29:10.439Z,89.17
2018-09-21T04:30:20.528Z,89.17
2018-09-21T04:31:30.601Z,89.12
2018-09-21T04:32:40.413Z,88.84
2018-09-21T04:33:50.493Z,89.26
2018-09-21T04:35:02.866Z,89.17
2018-09-21T04:36:13.188Z,88.79
2018-09-21T04:37:23.362Z,89.17
2018-09-21T04:38:33.457Z,89.17
2018-09-21T04:39:43.534Z,89.17
2018-09-21T04:40:53.618Z,88.98
2018-09-21T04:42:06.201Z,89.36
2018-09-21T04:43:16.272Z,89.36
2018-09-21T04:44:26.140Z,88.79
2018-09-21T04:45:36.062Z,88.98
2018-09-21T04:46:45.993Z,88.88
2018-09-21T04:47:56.065Z,88.79
2018-09-21T04:49:06.151Z,88.79
2018-09-21T04:50:16.254Z,88.79
2018-09-21T04:51:26.327Z,88.88
2018-09-21T04:52:36.488Z,89.07
2018-09-21T04:53:46.552Z,88.69
2018-09-21T04:54:56.645Z,88.69
2018-09-21T04:56:07.445Z,88.69
2018-09-21T04:57:17.567Z,88.79
2018-09-21T04:58:27.388Z,88.59
2018-09-21T04:59:37.457Z,88.69
2018-09-21T05:00:47.275Z,88.59
2018-09-21T05:01:56.845Z,88.88
2018-09-21T05:03:06.995Z,88.31
2018-09-21T05:04:17.096Z,88.21
2018-09-21T05:05:26.893Z,88.69
2018-09-21T05:06:36.716Z,88.69
2018-09-21T05:07:46.794Z,88.69
2018-09-21T05:08:56.871Z,88.69
2018-09-21T05:10:06.948Z,88.49
2018-09-21T05:11:17.034Z,88.83
2018-09-21T05:12:27.106Z,88.45
2018-09-21T05:13:37.311Z,88.16
2018-09-21T05:14:47.722Z,88.16
2018-09-21T05:15:57.794Z,88.06
2018-09-21T05:17:07.970Z,88.25
2018-09-21T05:18:18.069Z,88.25
2018-09-21T05:19:28.139Z,88.16
2018-09-21T05:20:38.237Z,88.3
2018-09-21T05:21:48.056Z,88.2
2018-09-21T05:22:58.134Z,88.49
2018-09-21T05:24:08.273Z,88.39
2018-09-21T05:25:18.086Z,88.3
2018-09-21T05:26:28.170Z,87.92
2018-09-21T05:27:37.751Z,87.82
2018-09-21T05:28:48.088Z,87.82
2018-09-21T05:29:58.176Z,88.3
2018-09-21T05:31:11.654Z,87.92
2018-09-21T05:32:21.779Z,87.92
2018-09-21T05:33:31.866Z,88.06
2018-09-21T05:34:42.172Z,87.67
2018-09-21T05:35:53.211Z,87.48
2018-09-21T05:37:06.445Z,87.86
2018-09-21T05:38:16.519Z,87.67
2018-09-21T05:39:26.584Z,87.76
2018-09-21T05:40:36.672Z,87.48
2018-09-21T05:41:46.758Z,87.48
2018-09-21T05:42:56.577Z,87.76
2018-09-21T05:44:06.812Z,87.57
2018-09-21T05:45:16.624Z,88.19
2018-09-21T05:46:26.467Z,88.19
2018-09-21T05:47:36.551Z,88.19
2018-09-21T05:48:46.639Z,87.42
2018-09-21T05:49:56.737Z,87.9
2018-09-21T05:51:06.822Z,87.52
2018-09-21T05:52:16.903Z,87.33
2018-09-21T05:53:26.976Z,87.52
2018-09-21T05:54:37.081Z,87.66
2018-09-21T05:55:46.906Z,87.95
2018-09-21T05:56:56.977Z,87.95
2018-09-21T05:58:07.047Z,87.66
2018-09-21T05:59:16.898Z,87.37
2018-09-21T06:00:27.002Z,87.46
2018-09-21T06:01:37.198Z,87.37
2018-09-21T06:02:47.330Z,87.51
2018-09-21T06:03:57.342Z,87.51
2018-09-21T06:05:07.425Z,87.51
2018-09-21T06:06:17.517Z,87.6
2018-09-21T06:07:27.378Z,87.22
2018-09-21T06:08:37.452Z,87.6
2018-09-21T06:09:47.529Z,87.41
2018-09-21T06:10:57.611Z,87.51
2018-09-21T06:12:07.424Z,87.46
2018-09-21T06:13:17.493Z,87.46
2018-09-21T06:14:27.317Z,87.26
2018-09-21T06:15:37.143Z,87.65
2018-09-21T06:16:47.215Z,87.46
2018-09-21T06:17:57.052Z,87.46
2018-09-21T06:19:07.184Z,87.65
2018-09-21T06:20:17.318Z,87.46
2018-09-21T06:21:27.135Z,87.55
2018-09-21T06:22:47.832Z,87.3
2018-09-21T06:23:58.118Z,87.5
2018-09-21T06:25:08.237Z,87.5
2018-09-21T06:26:18.071Z,87.5
2018-09-21T06:27:28.147Z,87.7
2018-09-21T06:28:37.957Z,87.7
2018-09-21T06:29:48.073Z,87.7
2018-09-21T06:30:58.149Z,87.7
2018-09-21T06:32:08.015Z,87.4
2018-09-21T06:33:18.105Z,87.7
2018-09-21T06:34:28.171Z,87.4
2018-09-21T06:35:38.314Z,87.4
2018-09-21T06:36:48.389Z,87.3
2018-09-21T06:37:58.207Z,87.4
2018-09-21T06:39:08.988Z,87.3
2018-09-21T06:40:18.834Z,87.6
2018-09-21T06:41:28.942Z,87.3
2018-09-21T06:42:39.024Z,87.35
2018-09-21T06:43:48.658Z,87.64
2018-09-21T06:44:58.723Z,87.54
2018-09-21T06:46:08.805Z,87.26
2018-09-21T06:47:18.945Z,87.16
2018-09-21T06:48:29.134Z,87.54
2018-09-21T06:49:39.220Z,87.26
2018-09-21T06:50:49.466Z,87.3
2018-09-21T06:51:59.555Z,87.01
2018-09-21T06:53:09.729Z,87.2
2018-09-21T06:54:19.577Z,88.17
2018-09-21T06:55:29.658Z,87.01
2018-09-21T06:56:39.745Z,87.78
2018-09-21T06:57:49.825Z,86.91
2018-09-21T06:58:59.908Z,87.34
2018-09-21T07:00:09.829Z,87.73
2018-09-21T07:01:20.005Z,87.34
2018-09-21T07:02:30.148Z,87.44
2018-09-21T07:03:40.251Z,87.63
2018-09-21T07:04:50.404Z,87.73
2018-09-21T07:06:00.531Z,87.63
2018-09-21T07:07:10.601Z,87.44
2018-09-21T07:08:20.713Z,87.24
2018-09-21T07:09:30.803Z,87.34
2018-09-21T07:10:40.928Z,87.19
2018-09-21T07:11:51.001Z,87.48
2018-09-21T07:13:02.363Z,87.48
2018-09-21T07:14:12.162Z,87.38
2018-09-21T07:15:22.236Z,87.48
2018-09-21T07:16:32.332Z,87.48
2018-09-21T07:17:42.408Z,87.48
2018-09-21T07:18:52.515Z,87.48
2018-09-21T07:20:02.769Z,87.33
2018-09-21T07:21:12.864Z,87.23
2018-09-21T07:22:22.953Z,87.33
2018-09-21T07:23:33.044Z,87.33
2018-09-21T07:24:43.134Z,87.43
2018-09-21T07:25:53.202Z,87.43
2018-09-21T07:27:03.273Z,87.62
2018-09-21T07:28:13.362Z,87.66
2018-09-21T07:29:23.463Z,87.66
2018-09-21T07:30:33.539Z,87.47
2018-09-21T07:31:43.621Z,87.47
2018-09-21T07:32:53.424Z,87.66
2018-09-21T07:34:04.929Z,86.79
2018-09-21T07:35:14.991Z,86.93
2018-09-21T07:36:24.536Z,86.93
2018-09-21T07:37:34.267Z,87.32
2018-09-21T07:38:44.211Z,86.74
2018-09-21T07:39:54.287Z,87.27
2018-09-21T07:41:04.917Z,87.27
2018-09-21T07:42:15.013Z,87.27
2018-09-21T07:43:25.142Z,87.27
2018-09-21T07:44:35.084Z,87.27
2018-09-21T07:45:45.609Z,87.17
2018-09-21T07:46:55.694Z,87.27
2018-09-21T07:48:05.793Z,87.17
2018-09-21T07:49:15.642Z,87.5
2018-09-21T07:50:25.532Z,87.41
2018-09-21T07:51:35.860Z,87.6
2018-09-21T07:52:45.954Z,87.02
2018-09-21T07:53:56.043Z,86.92
2018-09-21T07:55:06.127Z,87.54
2018-09-21T07:56:16.232Z,87.06
2018-09-21T07:57:26.365Z,86.96
2018-09-21T07:58:36.202Z,86.96
2018-09-21T07:59:46.302Z,87.06
2018-09-21T08:00:55.858Z,87.35
2018-09-21T08:02:05.954Z,87.06
2018-09-21T08:03:15.789Z,87.3
2018-09-21T08:04:25.331Z,87.01
2018-09-21T08:05:35.149Z,87.2
2018-09-21T08:06:45.254Z,87.1
2018-09-21T08:07:55.353Z,86.95
2018-09-21T08:09:06.226Z,87.34
2018-09-21T08:10:16.343Z,87.34
2018-09-21T08:11:25.893Z,87.34
2018-09-21T08:12:35.981Z,87.15
2018-09-21T08:13:46.188Z,86.86
2018-09-21T08:14:56.293Z,86.99
2018-09-21T08:16:06.395Z,87.05
2018-09-21T08:17:16.497Z,87.15
2018-09-21T08:18:26.599Z,87.29
2018-09-21T08:19:36.890Z,87.38
2018-09-21T08:20:46.985Z,87.29
2018-09-21T08:21:57.081Z,87.19
2018-09-21T08:23:07.214Z,87.29
2018-09-21T08:24:17.052Z,86.99
2018-09-21T08:25:27.143Z,87.43
2018-09-21T08:26:37.468Z,86.94
2018-09-21T08:27:48.007Z,87.33
2018-09-21T08:28:57.831Z,87.04
2018-09-21T08:30:08.084Z,87.23
2018-09-21T08:31:18.202Z,86.85
2018-09-21T08:32:27.953Z,86.79
2018-09-21T08:33:38.042Z,86.79
2018-09-21T08:34:47.601Z,87.18
2018-09-21T08:35:57.707Z,87.27
2018-09-21T08:37:07.892Z,87.08
2018-09-21T08:38:18.215Z,86.79
2018-09-21T08:39:28.293Z,86.93
2018-09-21T08:40:38.423Z,86.83
2018-09-21T08:41:48.537Z,87.03
2018-09-21T08:42:58.491Z,87.12
2018-09-21T08:44:08.483Z,86.83
2018-09-21T08:45:18.582Z,86.68
2018-09-21T08:46:28.777Z,87.26
2018-09-21T08:47:38.876Z,86.78
2018-09-21T08:48:48.715Z,87.16
2018-09-21T08:49:58.548Z,87.07
2018-09-21T08:51:08.488Z,86.88
2018-09-21T08:52:18.584Z,87.12
2018-09-21T08:53:28.683Z,87.12
2018-09-21T08:54:38.776Z,86.72
2018-09-21T08:55:48.936Z,86.72
2018-09-21T08:56:59.035Z,86.87
2018-09-21T08:58:09.130Z,86.82
2018-09-21T08:59:19.232Z,86.96
2018-09-21T09:00:29.325Z,86.67
2018-09-21T09:01:39.403Z,86.77
2018-09-21T09:02:49.332Z,86.67
2018-09-21T09:03:58.961Z,86.77
2018-09-21T09:05:09.046Z,86.77
2018-09-21T09:06:19.133Z,86.81
2018-09-21T09:07:29.016Z,86.87
2018-09-21T09:08:39.110Z,86.71
2018-09-21T09:09:48.940Z,86.91
2018-09-21T09:10:59.052Z,86.91
2018-09-21T09:12:08.882Z,86.91
2018-09-21T09:13:18.962Z,86.91
2018-09-21T09:14:29.064Z,86.71
2018-09-21T09:15:39.156Z,86.76
2018-09-21T09:16:49.238Z,86.85
2018-09-21T09:17:59.318Z,86.56
2018-09-21T09:19:09.476Z,87.05
2018-09-21T09:20:19.348Z,87.05
2018-09-21T09:21:29.178Z,87.05
2018-09-21T09:22:39.269Z,87.09
2018-09-21T09:23:49.355Z,87.09
2018-09-21T09:25:01.407Z,87.09
2018-09-21T09:26:11.719Z,87.09
2018-09-21T09:27:21.807Z,86.6
2018-09-21T09:28:31.619Z,86.8
2018-09-21T09:29:41.692Z,86.8
2018-09-21T09:30:51.695Z,87.19
2018-09-21T09:32:01.794Z,86.99
2018-09-21T09:33:11.904Z,87.04
2018-09-21T09:34:21.718Z,87.04
2018-09-21T09:35:31.828Z,87.13
2018-09-21T09:36:41.745Z,87.33
2018-09-21T09:37:51.693Z,87.13
2018-09-21T09:39:01.509Z,86.94
2018-09-21T09:40:11.355Z,87.33
2018-09-21T09:41:21.453Z,87.18
2018-09-21T09:42:31.590Z,87.18
2018-09-21T09:43:41.194Z,87.18
2018-09-21T09:44:51.290Z,86.98
2018-09-21T09:46:01.377Z,87.08
2018-09-21T09:47:11.457Z,87.08
2018-09-21T09:48:21.459Z,87.27
2018-09-21T09:49:31.939Z,87.18
2018-09-21T09:50:42.038Z,87.08
2018-09-21T09:51:52.129Z,87.41
2018-09-21T09:53:02.237Z,87.41
2018-09-21T09:54:12.320Z,87.22
2018-09-21T09:55:22.418Z,87.22
2018-09-21T09:56:32.506Z,87.41
2018-09-21T09:57:42.593Z,87.41
2018-09-21T09:58:52.411Z,87.02
2018-09-21T10:00:04.365Z,87.32
2018-09-21T10:01:14.473Z,86.93
2018-09-21T10:02:24.570Z,87.12
2018-09-21T10:03:34.913Z,86.83
2018-09-21T10:04:45.112Z,86.93
2018-09-21T10:05:55.244Z,87.26
2018-09-21T10:07:04.801Z,87.07
2018-09-21T10:08:14.632Z,87.26
2018-09-21T10:09:24.733Z,87.16
2018-09-21T10:10:34.292Z,86.97
2018-09-21T10:11:44.185Z,86.97
2018-09-21T10:12:54.297Z,87.26
2018-09-21T10:14:04.401Z,87.07
2018-09-21T10:15:14.507Z,86.97
2018-09-21T10:16:24.683Z,87.07
2018-09-21T10:17:34.729Z,86.87
2018-09-21T10:18:44.812Z,87.07
2018-09-21T10:19:54.630Z,87.07
2018-09-21T10:21:04.732Z,87.3
2018-09-21T10:22:14.554Z,87.11
2018-09-21T10:23:24.755Z,86.91
2018-09-21T10:24:34.932Z,86.91
2018-09-21T10:25:44.294Z,86.62
2018-09-21T10:26:53.881Z,86.91
2018-09-21T10:28:05.869Z,86.82
2018-09-21T10:29:16.873Z,86.82
2018-09-21T10:30:26.691Z,86.85
2018-09-21T10:31:36.833Z,87.01
2018-09-21T10:32:46.656Z,86.82
2018-09-21T10:33:56.790Z,86.66
2018-09-21T10:35:06.623Z,86.66
2018-09-21T10:36:16.514Z,86.56
2018-09-21T10:37:26.636Z,86.36
2018-09-21T10:38:36.478Z,86.7
2018-09-21T10:39:46.713Z,86.51
2018-09-21T10:40:57.278Z,86.7
2018-09-21T10:42:07.428Z,86.8
2018-09-21T10:43:17.832Z,86.6
2018-09-21T10:44:27.680Z,86.51
2018-09-21T10:45:37.492Z,86.6
2018-09-21T10:46:47.639Z,86.74
2018-09-21T10:47:57.769Z,86.55
2018-09-21T10:49:07.854Z,86.55
2018-09-21T10:50:17.705Z,86.55
2018-09-21T10:51:27.816Z,86.74
2018-09-21T10:52:38.032Z,86.59
2018-09-21T10:53:48.144Z,86.49
2018-09-21T10:54:57.719Z,86.59
2018-09-21T10:56:07.802Z,86.59
2018-09-21T10:57:17.896Z,86.59
2018-09-21T10:58:27.829Z,86.69
2018-09-21T10:59:38.090Z,86.49
2018-09-21T11:00:48.181Z,86.59
2018-09-21T11:01:58.029Z,86.59
2018-09-21T11:03:08.137Z,86.59
2018-09-21T11:04:18.367Z,86.59
2018-09-21T11:05:28.468Z,86.69
2018-09-21T11:06:38.559Z,86.69
2018-09-21T11:07:48.678Z,86.59
2018-09-21T11:08:58.765Z,86.59
2018-09-21T11:10:08.861Z,86.69
2018-09-21T11:11:18.956Z,86.63
2018-09-21T11:12:29.055Z,86.73
2018-09-21T11:13:39.126Z,86.63
2018-09-21T11:14:49.227Z,86.63
2018-09-21T11:15:59.343Z,86.83
2018-09-21T11:17:09.180Z,86.87
2018-09-21T11:18:18.994Z,86.97
2018-09-21T11:19:29.083Z,86.87
2018-09-21T11:20:38.641Z,86.87
2018-09-21T11:21:48.724Z,87.07
2018-09-21T11:22:58.567Z,86.68
2018-09-21T11:24:08.642Z,86.48
2018-09-21T11:25:18.750Z,86.33
2018-09-21T11:26:28.838Z,86.48
2018-09-21T11:27:38.687Z,86.87
2018-09-21T11:28:48.782Z,86.77
2018-09-21T11:29:58.671Z,86.87
2018-09-21T11:31:08.770Z,86.87
2018-09-21T11:32:18.652Z,86.77
2018-09-21T11:33:28.778Z,86.29
2018-09-21T11:34:38.616Z,87.16
2018-09-21T11:35:48.467Z,86.29
2018-09-21T11:36:58.419Z,86.29
2018-09-21T11:38:08.563Z,86.23
2018-09-21T11:39:18.403Z,86.43
2018-09-21T11:40:28.227Z,86.23
2018-09-21T11:41:38.401Z,86.29
2018-09-21T11:42:48.490Z,86.48
2018-09-21T11:43:58.591Z,86.29
2018-09-21T11:45:08.773Z,87.07
2018-09-21T11:46:18.865Z,86.29
2018-09-21T11:47:29.245Z,86.58
2018-09-21T11:48:40.203Z,86.33
2018-09-21T11:49:50.075Z,86.23
2018-09-21T11:50:59.935Z,86.04
2018-09-21T11:52:10.056Z,86.33
2018-09-21T11:53:20.140Z,86.62
2018-09-21T11:54:30.240Z,86.66
2018-09-21T11:55:40.447Z,86.57
2018-09-21T11:56:50.266Z,86.37
2018-09-21T11:58:02.356Z,86.47
2018-09-21T11:59:12.453Z,86.37
2018-09-21T12:00:22.544Z,86.66
2018-09-21T12:01:32.422Z,86.27
2018-09-21T12:02:42.298Z,86.13
2018-09-21T12:03:52.126Z,86.13
2018-09-21T12:05:02.302Z,85.93
2018-09-21T12:06:12.439Z,85.93
2018-09-21T12:07:22.596Z,86.23
2018-09-21T12:08:32.685Z,85.93
2018-09-21T12:09:42.793Z,86.23
2018-09-21T12:10:52.634Z,86.13
2018-09-21T12:12:02.547Z,86.33
2018-09-21T12:13:12.658Z,86.33
2018-09-21T12:14:22.741Z,86.72
2018-09-21T12:15:32.845Z,86.86
2018-09-21T12:16:42.667Z,86.37
2018-09-21T12:17:52.511Z,86.07
2018-09-21T12:19:02.341Z,86.47
2018-09-21T12:20:12.421Z,86.37
2018-09-21T12:21:22.509Z,86.37
2018-09-21T12:22:32.656Z,86.37
2018-09-21T12:23:42.264Z,86.37
2018-09-21T12:24:52.380Z,86.41
2018-09-21T12:26:02.493Z,86.61
2018-09-21T12:27:12.311Z,86.31
2018-09-21T12:28:22.450Z,86.41
2018-09-21T12:29:32.031Z,86.71
2018-09-21T12:30:42.131Z,86.51
2018-09-21T12:31:52.209Z,86.8
2018-09-21T12:33:02.307Z,86.61
2018-09-21T12:34:12.417Z,86.71
2018-09-21T12:35:22.564Z,86.21
2018-09-21T12:36:32.877Z,86.31
2018-09-21T12:37:43.040Z,86.31
2018-09-21T12:38:53.131Z,85.97
2018-09-21T12:40:06.177Z,86.31
2018-09-21T12:41:16.275Z,86.21
2018-09-21T12:42:26.133Z,86.41
2018-09-21T12:43:36.230Z,86.27
2018-09-21T12:44:46.498Z,86.27
2018-09-21T12:45:56.687Z,86.27
2018-09-21T12:47:06.464Z,86.57
2018-09-21T12:48:16.503Z,87.05
2018-09-21T12:49:26.547Z,86.96
2018-09-21T12:50:36.652Z,86.86
2018-09-21T12:51:46.829Z,86.86
2018-09-21T12:52:56.854Z,87.15
2018-09-21T12:54:06.894Z,87.11
2018-09-21T12:55:16.927Z,86.86
2018-09-21T12:56:26.780Z,86.76
2018-09-21T12:57:36.786Z,86.37
2018-09-21T12:58:47.254Z,86.27
2018-09-21T12:59:57.950Z,86.27
2018-09-21T13:01:07.998Z,86.76
2018-09-21T13:02:18.045Z,86.57
2018-09-21T13:03:28.129Z,86.27
2018-09-21T13:04:38.173Z,86.27
2018-09-21T13:05:47.938Z,85.97
2018-09-21T13:06:57.982Z,86.37
2018-09-21T13:08:08.065Z,86.37
2018-09-21T13:09:18.157Z,86.57
2018-09-21T13:10:27.999Z,86.57
2018-09-21T13:11:38.122Z,86.47
2018-09-21T13:12:48.209Z,86.8
2018-09-21T13:13:58.298Z,86.86
2018-09-21T13:15:08.442Z,86.96
2018-09-21T13:16:18.563Z,87.15
2018-09-21T13:17:28.673Z,87.05
2018-09-21T13:18:38.772Z,86.96
2018-09-21T13:19:48.633Z,86.76
2018-09-21T13:20:58.778Z,87.15
2018-09-21T13:22:08.616Z,87.15
2018-09-21T13:23:18.722Z,86.96
2018-09-21T13:24:28.558Z,86.76
2018-09-21T13:25:38.430Z,86.76
2018-09-21T13:26:48.761Z,86.76
2018-09-21T13:27:58.857Z,86.96
2018-09-21T13:29:08.674Z,86.86
2018-09-21T13:30:18.514Z,86.76
2018-09-21T13:31:28.596Z,86.76
2018-09-21T13:32:38.759Z,86.96
2018-09-21T13:33:48.860Z,86.86
2018-09-21T13:34:58.942Z,86.62
2018-09-21T13:36:10.096Z,86.82
2018-09-21T13:37:20.188Z,86.72
2018-09-21T13:38:30.271Z,87.11
2018-09-21T13:39:40.106Z,87.21
2018-09-21T13:40:50.208Z,86.91
2018-09-21T13:42:01.420Z,86.91
2018-09-21T13:43:11.501Z,86.72
2018-09-21T13:44:21.327Z,87.21
2018-09-21T13:45:31.416Z,86.72
2018-09-21T13:46:41.254Z,87.11
2018-09-21T13:47:51.353Z,87.11
2018-09-21T13:49:03.208Z,87.21
2018-09-21T13:50:13.365Z,86.87
2018-09-21T13:51:23.205Z,86.91
2018-09-21T13:52:33.318Z,86.91
2018-09-21T13:53:43.401Z,87.11
2018-09-21T13:54:53.500Z,86.72
2018-09-21T13:56:03.345Z,86.62
2018-09-21T13:57:13.429Z,87.21
2018-09-21T13:58:23.261Z,87.11
2018-09-21T13:59:33.367Z,87.3
2018-09-21T14:00:43.200Z,87.11
2018-09-21T14:01:52.813Z,87.11
2018-09-21T14:03:02.923Z,86.82
2018-09-21T14:04:13.027Z,87.11
2018-09-21T14:05:22.603Z,86.91
2018-09-21T14:06:32.597Z,87.01
2018-09-21T14:07:42.756Z,87.07
2018-09-21T14:08:52.840Z,87.11
2018-09-21T14:10:02.930Z,87.16
2018-09-21T14:11:13.059Z,87.5
2018-09-21T14:12:23.130Z,87.55
2018-09-21T14:13:33.253Z,87.55
2018-09-21T14:14:43.371Z,87.36
2018-09-21T14:15:53.467Z,87.36
2018-09-21T14:17:04.828Z,87.26
2018-09-21T14:18:14.936Z,87.26
2018-09-21T14:19:25.059Z,87.46
2018-09-21T14:20:35.146Z,87.36
2018-09-21T14:21:45.313Z,87.55
2018-09-21T14:22:55.426Z,87.55
2018-09-21T14:24:05.300Z,87.65
2018-09-21T14:25:15.412Z,87.36
2018-09-21T14:26:25.527Z,87.26
2018-09-21T14:27:35.613Z,87.36
2018-09-21T14:28:45.705Z,87.36
2018-09-21T14:29:55.592Z,87.46
2018-09-21T14:31:07.921Z,87.36
2018-09-21T14:32:18.015Z,87.16
2018-09-21T14:33:28.102Z,87.36
2018-09-21T14:34:38.215Z,87.46
2018-09-21T14:35:48.350Z,87.26
2018-09-21T14:36:58.715Z,87.36
2018-09-21T14:38:08.809Z,87.76
2018-09-21T14:39:18.936Z,87.76
2018-09-21T14:40:28.786Z,87.51
2018-09-21T14:41:38.900Z,87.02
2018-09-21T14:42:49.027Z,87.51
2018-09-21T14:43:59.134Z,87.51
2018-09-21T14:45:08.977Z,87.36
2018-09-21T14:46:19.061Z,87.02
2018-09-21T14:47:29.159Z,87.55
2018-09-21T14:48:39.301Z,87.32
2018-09-21T14:49:49.424Z,87.22
2018-09-21T14:50:59.253Z,87.91
2018-09-21T14:52:08.846Z,88.1
2018-09-21T14:53:19.207Z,88.3
2018-09-21T14:54:29.370Z,88.16
2018-09-21T14:55:39.196Z,88.35
2018-09-21T14:56:49.299Z,87.96
2018-09-21T14:57:58.875Z,88.26
2018-09-21T14:59:08.957Z,88.65
2018-09-21T15:00:19.319Z,88.65
2018-09-21T15:01:29.428Z,88.45
2018-09-21T15:02:39.512Z,88.6
2018-09-21T15:03:49.340Z,88.21
2018-09-21T15:04:59.439Z,88.51
2018-09-21T15:06:10.585Z,88.31
2018-09-21T15:07:20.711Z,88.12
2018-09-21T15:08:30.994Z,88.12
2018-09-21T15:09:40.986Z,87.92
2018-09-21T15:10:51.089Z,88.12
2018-09-21T15:12:03.221Z,87.88
2018-09-21T15:13:13.315Z,88.07
2018-09-21T15:14:23.410Z,87.98
2018-09-21T15:15:33.518Z,88.37
2018-09-21T15:16:43.647Z,88.66
2018-09-21T15:17:53.740Z,88.62
2018-09-21T15:19:03.866Z,88.56
2018-09-21T15:20:13.982Z,88.62
2018-09-21T15:21:24.081Z,89.01
2018-09-21T15:22:34.173Z,88.62
2018-09-21T15:23:44.339Z,88.81
2018-09-21T15:24:54.452Z,88.52
2018-09-21T15:26:04.572Z,88.23
2018-09-21T15:27:14.687Z,88.23
2018-09-21T15:28:24.809Z,88.32
2018-09-21T15:29:35.474Z,88.42
2018-09-21T15:30:45.315Z,88.52
2018-09-21T15:31:55.401Z,88.42
2018-09-21T15:33:06.662Z,88.42
2018-09-21T15:34:16.759Z,88.23
2018-09-21T15:35:26.614Z,88.42
2018-09-21T15:36:36.436Z,88.42
2018-09-21T15:37:46.277Z,88.32